createdAt,value
2019-04-20T00:01:36.010Z,47.33
2019-04-20T00:04:10.844Z,47.33
2019-04-20T00:06:39.842Z,46.87
2019-04-20T00:09:14.005Z,46.93
2019-04-20T00:11:51.672Z,52.53
2019-04-20T00:14:16.156Z,44.47
2019-04-20T00:16:40.106Z,43.20
2019-04-20T00:19:10.269Z,42.73
2019-04-20T00:21:53.702Z,41.57
2019-04-20T00:24:23.427Z,46.47
2019-04-20T00:27:15.804Z,42.20
2019-04-20T00:29:39.351Z,55.10
2019-04-20T00:32:02.819Z,46.53
2019-04-20T00:34:28.254Z,48.00
2019-04-20T00:36:53.921Z,47.07
2019-04-20T00:39:23.864Z,45.53
2019-04-20T00:41:58.733Z,50.20
2019-04-20T00:44:28.710Z,53.17
2019-04-20T00:47:04.514Z,46.73
2019-04-20T00:49:38.890Z,47.53
2019-04-20T00:52:23.746Z,49.60
2019-04-20T00:54:26.364Z,43.90
2019-04-20T00:57:06.633Z,51.33
2019-04-20T00:59:44.657Z,54.17
2019-04-20T01:02:15.622Z,45.03
2019-04-20T01:04:52.398Z,46.77
2019-04-20T01:07:17.650Z,48.80
2019-04-20T01:09:51.994Z,49.23
2019-04-20T01:12:26.287Z,51.73
2019-04-20T01:14:55.967Z,54.90
2019-04-20T01:17:21.794Z,49.97
2019-04-20T01:19:52.688Z,51.20
2019-04-20T01:22:25.117Z,46.83
2019-04-20T01:24:52.010Z,47.17
2019-04-20T01:27:34.999Z,46.73
2019-04-20T01:30:03.473Z,46.50
2019-04-20T01:32:32.022Z,41.30
2019-04-20T01:35:05.903Z,49.97
2019-04-20T01:37:36.562Z,40.27
2019-04-20T01:39:57.609Z,46.70
2019-04-20T01:42:25.517Z,42.73
2019-04-20T01:44:56.951Z,45.30
2019-04-20T01:47:32.295Z,48.03
2019-04-20T01:50:05.826Z,47.23
2019-04-20T01:52:35.303Z,51.20
2019-04-20T01:55:23.005Z,43.63
2019-04-20T01:58:00.525Z,45.80
2019-04-20T02:00:33.330Z,42.83
2019-04-20T02:03:20.967Z,44.03
2019-04-20T02:05:57.820Z,46.97
2019-04-20T02:08:22.582Z,42.17
2019-04-20T02:10:54.355Z,47.53
2019-04-20T02:13:19.740Z,48.93
2019-04-20T02:15:52.725Z,49.97
2019-04-20T02:18:35.092Z,47.77
2019-04-20T02:21:09.427Z,47.40
2019-04-20T02:23:31.784Z,51.67
2019-04-20T02:25:52.152Z,49.07
2019-04-20T02:28:37.419Z,51.13
2019-04-20T02:33:58.053Z,44.47
2019-04-20T02:36:42.918Z,44.10
2019-04-20T02:39:21.918Z,45.93
2019-04-20T02:46:43.022Z,44.53
2019-04-20T02:49:29.614Z,43.27
2019-04-20T02:51:42.130Z,45.43
2019-04-20T02:56:58.286Z,44.03
2019-04-20T03:01:32.378Z,52.20
2019-04-20T03:03:48.969Z,42.97
2019-04-20T03:06:23.306Z,41.30
2019-04-20T03:09:09.024Z,47.90
2019-04-20T03:11:42.729Z,45.93
2019-04-20T03:14:03.627Z,43.57
2019-04-20T03:16:32.290Z,47.90
2019-04-20T03:19:04.115Z,54.07
2019-04-20T03:21:39.090Z,50.13
2019-04-20T03:24:13.937Z,52.13
2019-04-20T03:26:40.244Z,48.00
2019-04-20T03:29:09.939Z,48.23
2019-04-20T03:32:32.974Z,47.67
2019-04-20T03:37:04.705Z,49.37
2019-04-20T03:39:28.707Z,46.63
2019-04-20T03:41:46.329Z,48.57
2019-04-20T03:44:14.196Z,54.57
2019-04-20T03:46:47.658Z,46.03
2019-04-20T03:49:38.313Z,46.63
2019-04-20T03:52:02.555Z,48.73
2019-04-20T03:54:30.806Z,47.80
2019-04-20T03:57:19.704Z,43.80
2019-04-20T04:00:03.378Z,54.13
2019-04-20T04:02:49.291Z,47.77
2019-04-20T04:05:08.773Z,47.63
2019-04-20T04:07:30.533Z,46.50
2019-04-20T04:10:08.554Z,47.50
2019-04-20T04:12:58.904Z,51.30
2019-04-20T04:15:28.002Z,50.17
2019-04-20T04:18:04.102Z,47.93
2019-04-20T04:20:36.071Z,61.90
2019-04-20T04:23:16.240Z,50.33
2019-04-20T04:25:39.713Z,46.67
2019-04-20T04:28:14.242Z,46.30
2019-04-20T04:30:40.580Z,46.13
2019-04-20T04:33:39.999Z,49.60
2019-04-20T04:35:47.839Z,47.13
2019-04-20T04:38:24.045Z,47.13
2019-04-20T04:41:06.485Z,51.20
2019-04-20T04:43:19.770Z,50.63
2019-04-20T04:45:36.553Z,51.70
2019-04-20T04:48:07.647Z,44.27
2019-04-20T04:50:44.631Z,50.30
2019-04-20T04:53:12.052Z,51.80
2019-04-20T04:55:45.812Z,56.87
2019-04-20T04:58:08.525Z,49.90
2019-04-20T05:00:39.083Z,56.27
2019-04-20T05:03:27.009Z,51.80
2019-04-20T05:06:08.909Z,67.07
2019-04-20T05:08:27.032Z,53.63
2019-04-20T05:10:49.984Z,53.17
2019-04-20T05:13:19.909Z,52.43
2019-04-20T05:16:06.310Z,59.10
2019-04-20T05:18:44.782Z,50.90
2019-04-20T05:21:10.684Z,56.37
2019-04-20T05:23:42.396Z,50.03
2019-04-20T05:26:30.018Z,48.17
2019-04-20T05:28:53.198Z,45.83
2019-04-20T05:31:16.904Z,53.60
2019-04-20T05:34:08.091Z,45.23
2019-04-20T05:36:38.413Z,51.30
2019-04-20T05:39:16.800Z,59.27
2019-04-20T05:41:38.442Z,45.87
2019-04-20T05:44:08.766Z,41.40
2019-04-20T05:46:42.449Z,45.80
2019-04-20T05:49:20.672Z,41.07
2019-04-20T05:51:42.426Z,41.70
2019-04-20T05:54:17.825Z,38.60
2019-04-20T05:59:12.730Z,50.27
2019-04-20T06:01:53.269Z,41.50
2019-04-20T06:04:17.263Z,40.97
2019-04-20T06:06:49.612Z,41.43
2019-04-20T06:09:21.044Z,41.20
2019-04-20T06:11:58.529Z,35.63
2019-04-20T06:14:17.163Z,40.53
2019-04-20T06:17:20.997Z,35.23
2019-04-20T06:19:47.278Z,34.97
2019-04-20T06:22:37.900Z,28.70
2019-04-20T06:25:31.867Z,29.60
2019-04-20T06:27:49.279Z,28.47
2019-04-20T06:30:11.031Z,32.13
2019-04-20T06:33:31.089Z,31.93
2019-04-20T06:36:07.540Z,32.93
2019-04-20T06:38:43.109Z,29.33
2019-04-20T06:41:19.796Z,25.57
2019-04-20T06:43:25.334Z,27.70
2019-04-20T06:46:01.985Z,36.23
2019-04-20T06:48:29.079Z,26.93
2019-04-20T06:50:49.272Z,19.03
2019-04-20T06:53:39.383Z,23.20
2019-04-20T06:56:15.720Z,21.30
2019-04-20T07:01:10.967Z,20.60
2019-04-20T07:06:29.395Z,26.00
2019-04-20T07:11:18.723Z,25.67
2019-04-20T07:13:37.428Z,20.37
2019-04-20T07:16:28.935Z,25.37
2019-04-20T07:19:17.229Z,25.63
2019-04-20T07:22:01.865Z,27.97
2019-04-20T07:24:25.209Z,25.30
2019-04-20T07:26:55.472Z,23.93
2019-04-20T07:29:31.985Z,26.70
2019-04-20T07:31:48.700Z,25.20
2019-04-20T07:34:26.114Z,26.80
2019-04-20T07:37:19.316Z,28.70
2019-04-20T07:39:29.046Z,26.17
2019-04-20T07:42:01.797Z,26.30
2019-04-20T07:44:36.011Z,25.37
2019-04-20T07:47:07.496Z,25.80
2019-04-20T07:49:29.014Z,26.53
2019-04-20T07:51:44.303Z,24.03
2019-04-20T07:54:35.715Z,34.83
2019-04-20T07:56:58.678Z,25.53
2019-04-20T07:59:25.301Z,26.87
2019-04-20T08:02:29.037Z,30.27
2019-04-20T08:04:47.137Z,25.30
2019-04-20T08:07:05.829Z,21.80
2019-04-20T08:09:42.240Z,26.30
2019-04-20T08:12:36.290Z,25.35
2019-04-20T08:15:05.137Z,57.75
2019-04-20T08:17:30.947Z,24.85
2019-04-20T08:19:51.792Z,21.97
2019-04-20T08:22:26.766Z,30.70
2019-04-20T08:24:52.337Z,18.87
2019-04-20T08:27:12.378Z,20.52
2019-04-20T08:29:54.073Z,22.13
2019-04-20T08:32:47.039Z,19.57
2019-04-20T08:35:25.925Z,20.60
2019-04-20T08:38:01.847Z,18.73
2019-04-20T08:40:24.346Z,14.53
2019-04-20T08:43:05.468Z,15.55
2019-04-20T08:45:23.949Z,17.40
2019-04-20T08:47:56.979Z,11.88
2019-04-20T08:50:22.502Z,80.05
2019-04-20T08:53:12.808Z,16.60
2019-04-20T08:55:23.902Z,14.07
2019-04-20T08:57:37.947Z,16.55
2019-04-20T09:00:11.158Z,12.60
2019-04-20T09:02:41.232Z,18.42
2019-04-20T09:05:28.218Z,9.58
2019-04-20T09:07:53.777Z,14.03
2019-04-20T09:10:35.717Z,22.75
2019-04-20T09:12:57.238Z,11.93
2019-04-20T09:15:14.804Z,13.43
2019-04-20T09:17:52.965Z,10.38
2019-04-20T09:20:31.875Z,12.03
2019-04-20T09:23:07.033Z,14.47
2019-04-20T09:28:11.709Z,12.05
2019-04-20T09:30:45.540Z,11.12
2019-04-20T09:33:41.776Z,11.90
2019-04-20T09:36:15.489Z,13.20
2019-04-20T09:39:00.027Z,12.45
2019-04-20T09:41:44.367Z,10.72
2019-04-20T09:43:52.472Z,10.20
2019-04-20T09:46:22.244Z,26.68
2019-04-20T09:48:56.106Z,12.13
2019-04-20T09:51:39.769Z,12.18
2019-04-20T09:54:03.941Z,12.60
2019-04-20T09:56:35.704Z,11.78
2019-04-20T09:59:12.243Z,15.78
2019-04-20T10:01:33.942Z,14.25
2019-04-20T10:03:54.767Z,11.25
2019-04-20T10:06:27.270Z,10.82
2019-04-20T10:08:56.803Z,13.13
2019-04-20T10:11:25.503Z,14.03
2019-04-20T10:13:54.463Z,8.38
2019-04-20T10:16:23.834Z,16.42
2019-04-20T10:18:54.918Z,8.63
2019-04-20T10:21:23.632Z,17.12
2019-04-20T10:23:52.599Z,11.83
2019-04-20T10:26:22.653Z,13.35
2019-04-20T10:28:51.880Z,13.68
2019-04-20T10:31:20.734Z,9.90
2019-04-20T10:33:49.448Z,16.07
2019-04-20T10:36:37.482Z,9.00
2019-04-20T10:39:08.855Z,16.87
2019-04-20T10:41:45.196Z,12.55
2019-04-20T10:44:09.093Z,8.73
2019-04-20T10:46:38.871Z,12.65
2019-04-20T10:49:09.589Z,27.60
2019-04-20T10:51:39.802Z,14.93
2019-04-20T10:54:09.145Z,9.90
2019-04-20T10:56:39.142Z,7.97
2019-04-20T10:59:09.703Z,12.50
2019-04-20T11:01:39.980Z,15.10
2019-04-20T11:04:10.435Z,13.35
2019-04-20T11:06:40.591Z,16.37
2019-04-20T11:09:10.925Z,12.93
2019-04-20T11:11:40.717Z,8.75
2019-04-20T11:14:20.372Z,15.28
2019-04-20T11:16:42.394Z,18.57
2019-04-20T11:19:11.639Z,10.43
2019-04-20T11:21:40.848Z,9.90
2019-04-20T11:24:10.078Z,10.25
2019-04-20T11:26:41.633Z,9.63
2019-04-20T11:29:10.526Z,12.55
2019-04-20T11:31:44.322Z,8.95
2019-04-20T11:34:10.409Z,11.18
2019-04-20T11:36:39.481Z,10.63
2019-04-20T11:39:11.265Z,13.28
2019-04-20T11:41:41.486Z,16.00
2019-04-20T11:44:11.700Z,10.30
2019-04-20T11:46:40.799Z,11.33
2019-04-20T11:49:09.892Z,7.67
2019-04-20T11:51:39.406Z,15.60
2019-04-20T11:54:08.472Z,11.60
2019-04-20T11:56:40.792Z,12.58
2019-04-20T11:59:09.328Z,8.10
2019-04-20T12:01:49.030Z,6.75
2019-04-20T12:04:27.120Z,11.88
2019-04-20T12:06:43.420Z,9.05
2019-04-20T12:09:12.893Z,10.60
2019-04-20T12:11:58.494Z,6.45
2019-04-20T12:14:12.636Z,10.55
2019-04-20T12:16:41.716Z,8.08
2019-04-20T12:19:10.724Z,6.70
2019-04-20T12:21:39.479Z,7.90
2019-04-20T12:24:08.286Z,7.40
2019-04-20T12:26:38.536Z,8.00
2019-04-20T12:29:07.896Z,9.73
2019-04-20T12:31:37.712Z,9.15
2019-04-20T12:34:06.793Z,10.00
2019-04-20T12:36:35.615Z,8.73
2019-04-20T12:39:08.912Z,8.80
2019-04-20T12:41:46.202Z,9.73
2019-04-20T12:44:09.653Z,11.75
2019-04-20T12:46:38.922Z,9.60
2019-04-20T12:49:07.850Z,23.12
2019-04-20T12:51:45.473Z,10.58
2019-04-20T12:54:07.047Z,9.75
2019-04-20T12:56:36.046Z,6.78
2019-04-20T12:59:05.581Z,11.57
2019-04-20T13:01:35.431Z,9.93
2019-04-20T13:04:07.349Z,11.30
2019-04-20T13:06:37.338Z,8.33
2019-04-20T13:09:10.641Z,10.40
2019-04-20T13:11:51.649Z,9.73
2019-04-20T13:14:34.803Z,8.83
2019-04-20T13:17:04.180Z,10.25
2019-04-20T13:19:33.334Z,10.60
2019-04-20T13:22:03.239Z,8.93
2019-04-20T13:24:32.450Z,7.13
2019-04-20T13:27:02.640Z,74.30
2019-04-20T13:29:33.545Z,14.27
2019-04-20T13:32:02.404Z,11.00
2019-04-20T13:34:31.988Z,13.50
2019-04-20T13:37:02.186Z,9.87
2019-04-20T13:39:31.097Z,12.17
2019-04-20T13:42:10.518Z,10.17
2019-04-20T13:44:30.722Z,16.20
2019-04-20T13:47:00.820Z,8.13
2019-04-20T13:49:31.220Z,9.30
2019-04-20T13:52:00.424Z,12.07
2019-04-20T13:54:29.853Z,8.27
2019-04-20T13:57:00.630Z,8.90
2019-04-20T13:59:32.467Z,8.35
2019-04-20T14:02:15.044Z,8.13
2019-04-20T14:04:46.527Z,9.70
2019-04-20T14:07:17.019Z,7.97
2019-04-20T14:09:47.703Z,8.30
2019-04-20T14:12:25.172Z,6.33
2019-04-20T14:14:51.052Z,8.30
2019-04-20T14:17:21.124Z,9.40
2019-04-20T14:19:50.529Z,9.77
2019-04-20T14:22:20.739Z,11.20
2019-04-20T14:24:51.019Z,5.57
2019-04-20T14:27:21.139Z,15.00
2019-04-20T14:29:50.927Z,9.80
2019-04-20T14:32:40.823Z,11.87
2019-04-20T14:35:11.238Z,5.87
2019-04-20T14:37:41.376Z,13.07
2019-04-20T14:40:12.531Z,15.35
2019-04-20T14:42:46.433Z,7.10
2019-04-20T14:45:12.422Z,10.70
2019-04-20T14:47:41.534Z,9.77
2019-04-20T14:50:11.840Z,8.67
2019-04-20T14:52:41.760Z,9.03
2019-04-20T14:55:13.768Z,7.30
2019-04-20T14:57:41.746Z,7.40
2019-04-20T15:00:31.879Z,10.00
2019-04-20T15:03:03.838Z,5.23
2019-04-20T15:05:32.938Z,6.77
2019-04-20T15:08:02.746Z,8.00
2019-04-20T15:10:32.932Z,9.53
2019-04-20T15:13:04.546Z,5.90
2019-04-20T15:15:32.592Z,8.10
2019-04-20T15:18:05.929Z,7.87
2019-04-20T15:20:37.437Z,12.40
2019-04-20T15:23:08.006Z,9.30
2019-04-20T15:25:37.065Z,33.30
2019-04-20T15:28:06.152Z,7.17
2019-04-20T15:30:36.124Z,7.57
2019-04-20T15:33:05.212Z,13.63
2019-04-20T15:35:34.705Z,6.80
2019-04-20T15:38:04.990Z,7.27
2019-04-20T15:40:35.236Z,5.40
2019-04-20T15:43:11.782Z,6.73
2019-04-20T15:45:34.641Z,10.07
2019-04-20T15:48:03.796Z,6.63
2019-04-20T15:50:33.902Z,5.00
2019-04-20T15:53:03.963Z,8.97
2019-04-20T15:55:37.972Z,5.57
2019-04-20T15:58:06.403Z,7.37
2019-04-20T16:00:36.307Z,8.53
2019-04-20T16:03:19.218Z,16.53
2019-04-20T16:06:05.379Z,6.60
2019-04-20T16:08:36.647Z,4.37
2019-04-20T16:11:06.989Z,4.10
2019-04-20T16:13:40.330Z,13.87
2019-04-20T16:16:07.834Z,6.50
2019-04-20T16:18:37.098Z,5.03
2019-04-20T16:21:11.697Z,5.00
2019-04-20T16:23:41.152Z,2.93
2019-04-20T16:26:23.873Z,3.07
2019-04-20T16:28:53.503Z,18.53
2019-04-20T16:31:22.748Z,2.63
2019-04-20T16:33:54.018Z,9.40
2019-04-20T16:36:22.847Z,5.03
2019-04-20T16:38:53.169Z,15.87
2019-04-20T16:41:22.334Z,6.67
2019-04-20T16:43:51.642Z,10.97
2019-04-20T16:46:23.628Z,4.07
2019-04-20T16:48:51.028Z,9.60
2019-04-20T16:51:20.822Z,4.50
2019-04-20T16:53:50.146Z,6.87
2019-04-20T16:56:21.076Z,5.20
2019-04-20T16:58:57.306Z,9.47
2019-04-20T17:01:21.372Z,4.17
2019-04-20T17:04:01.793Z,4.10
2019-04-20T17:06:26.307Z,8.30
2019-04-20T17:08:56.535Z,7.57
2019-04-20T17:11:25.731Z,3.43
2019-04-20T17:13:58.038Z,8.97
2019-04-20T17:16:25.976Z,2.50
2019-04-20T17:18:55.303Z,4.73
2019-04-20T17:21:27.717Z,3.40
2019-04-20T17:23:55.467Z,3.50
2019-04-20T17:26:27.280Z,10.97
2019-04-20T17:29:10.566Z,14.33
2019-04-20T17:31:41.298Z,10.60
2019-04-20T17:34:26.955Z,29.53
2019-04-20T17:36:40.678Z,11.17
2019-04-20T17:39:12.531Z,6.40
2019-04-20T17:41:56.313Z,6.97
2019-04-20T17:44:30.277Z,9.53
2019-04-20T17:46:52.384Z,8.90
2019-04-20T17:49:28.303Z,4.17
2019-04-20T17:52:05.119Z,7.90
2019-04-20T17:54:15.821Z,6.93
2019-04-20T17:56:46.671Z,4.17
2019-04-20T17:59:16.679Z,3.57
2019-04-20T18:02:07.852Z,7.03
2019-04-20T18:05:03.785Z,4.47
2019-04-20T18:07:28.431Z,7.07
2019-04-20T18:09:58.860Z,9.27
2019-04-20T18:12:07.595Z,5.70
2019-04-20T18:14:48.075Z,7.30
2019-04-20T18:17:24.342Z,8.23
2019-04-20T18:19:45.011Z,6.33
2019-04-20T18:22:14.166Z,11.27
2019-04-20T18:25:09.161Z,21.67
2019-04-20T18:27:39.934Z,26.30
2019-04-20T18:30:04.082Z,16.63
2019-04-20T18:32:16.022Z,13.87
2019-04-20T18:34:54.150Z,10.47
2019-04-20T18:37:21.533Z,6.40
2019-04-20T18:39:57.389Z,8.30
2019-04-20T18:42:29.109Z,7.43
2019-04-20T18:45:09.054Z,5.53
2019-04-20T18:47:42.158Z,6.03
2019-04-20T18:50:03.140Z,6.20
2019-04-20T18:52:24.452Z,5.43
2019-04-20T18:54:55.567Z,12.93
2019-04-20T18:57:28.704Z,7.97
2019-04-20T18:59:56.681Z,8.30
2019-04-20T19:02:31.196Z,10.27
2019-04-20T19:04:58.618Z,9.93
2019-04-20T19:07:27.995Z,10.27
2019-04-20T19:10:02.603Z,13.00
2019-04-20T19:12:36.666Z,12.53
2019-04-20T19:15:20.765Z,7.03
2019-04-20T19:17:49.698Z,6.73
2019-04-20T19:20:29.032Z,6.73
2019-04-20T19:22:59.932Z,10.17
2019-04-20T19:25:34.562Z,6.73
2019-04-20T19:28:01.330Z,8.73
2019-04-20T19:30:37.247Z,9.33
2019-04-20T19:33:18.737Z,10.10
2019-04-20T19:35:41.613Z,14.03
2019-04-20T19:38:10.330Z,10.80
2019-04-20T19:40:45.424Z,8.33
2019-04-20T19:43:30.507Z,7.97
2019-04-20T19:46:31.459Z,8.13
2019-04-20T19:48:39.073Z,18.43
2019-04-20T19:51:19.226Z,13.57
2019-04-20T19:53:48.718Z,10.93
2019-04-20T19:56:07.762Z,11.90
2019-04-20T19:58:34.379Z,9.10
2019-04-20T20:00:59.460Z,10.87
2019-04-20T20:03:27.947Z,10.40
2019-04-20T20:05:58.284Z,11.57
2019-04-20T20:08:29.954Z,11.37
2019-04-20T20:11:00.851Z,7.17
2019-04-20T20:13:37.521Z,12.33
2019-04-20T20:16:08.936Z,15.13
2019-04-20T20:18:46.570Z,12.77
2019-04-20T20:21:15.185Z,12.30
2019-04-20T20:23:32.063Z,12.10
2019-04-20T20:26:05.068Z,11.67
2019-04-20T20:28:40.376Z,17.27
2019-04-20T20:31:17.121Z,12.20
2019-04-20T20:33:49.672Z,14.57
2019-04-20T20:36:12.569Z,9.63
2019-04-20T20:38:42.255Z,15.77
2019-04-20T20:41:15.155Z,13.60
2019-04-20T20:43:48.164Z,15.70
2019-04-20T20:46:21.347Z,15.03
2019-04-20T20:49:03.482Z,19.60
2019-04-20T20:51:35.533Z,14.53
2019-04-20T20:53:50.878Z,19.53
2019-04-20T20:56:22.605Z,21.97
2019-04-20T20:58:53.980Z,18.77
2019-04-20T21:01:23.765Z,23.93
2019-04-20T21:03:52.646Z,15.60
2019-04-20T21:06:20.273Z,22.60
2019-04-20T21:08:53.736Z,28.07
2019-04-20T21:11:24.217Z,18.13
2019-04-20T21:13:52.799Z,25.13
2019-04-20T21:16:26.656Z,28.27
2019-04-20T21:19:13.507Z,33.43
2019-04-20T21:21:37.372Z,31.87
2019-04-20T21:24:05.148Z,29.27
2019-04-20T21:26:34.992Z,24.07
2019-04-20T21:28:59.655Z,21.00
2019-04-20T21:31:29.664Z,19.90
2019-04-20T21:34:01.863Z,20.73
2019-04-20T21:36:31.780Z,22.30
2019-04-20T21:39:01.581Z,36.70
2019-04-20T21:41:31.073Z,30.37
2019-04-20T21:44:01.154Z,31.47
2019-04-20T21:46:39.858Z,31.77
2019-04-20T21:49:18.216Z,19.17
2019-04-20T21:51:44.285Z,19.57
2019-04-20T21:54:04.926Z,20.00
2019-04-20T21:56:39.267Z,20.70
2019-04-20T21:59:14.233Z,19.23
2019-04-20T22:01:39.732Z,17.57
2019-04-20T22:04:08.290Z,13.57
2019-04-20T22:06:38.244Z,20.77
2019-04-20T22:09:10.737Z,20.90
2019-04-20T22:11:40.261Z,15.83
2019-04-20T22:14:17.520Z,17.43
2019-04-20T22:16:47.989Z,16.30
2019-04-20T22:19:28.605Z,13.57
2019-04-20T22:21:53.141Z,17.67
2019-04-20T22:24:28.659Z,16.80
2019-04-20T22:26:58.896Z,24.13
2019-04-20T22:29:16.207Z,18.97
2019-04-20T22:31:52.352Z,17.03
2019-04-20T22:34:20.809Z,17.23
2019-04-20T22:36:48.715Z,23.83
2019-04-20T22:39:32.225Z,25.60
2019-04-20T22:42:02.647Z,21.47
2019-04-20T22:44:28.308Z,22.20
2019-04-20T22:46:58.350Z,22.63
2019-04-20T22:49:45.537Z,21.30
2019-04-20T22:52:06.337Z,18.13
2019-04-20T22:54:46.722Z,25.17
2019-04-20T22:57:10.701Z,28.27
2019-04-20T22:59:38.372Z,26.90
2019-04-20T23:02:02.364Z,27.70
2019-04-20T23:04:31.011Z,26.27
2019-04-20T23:07:00.926Z,25.47
2019-04-20T23:09:32.759Z,26.33
2019-04-20T23:12:09.120Z,26.33
2019-04-20T23:14:32.095Z,27.73
2019-04-20T23:17:02.153Z,28.00
2019-04-20T23:19:38.234Z,28.43
2019-04-20T23:22:06.450Z,29.63
2019-04-20T23:24:33.202Z,24.33
2019-04-20T23:27:06.571Z,28.93
2019-04-20T23:29:36.454Z,30.83
2019-04-20T23:32:06.511Z,26.80
2019-04-20T23:34:34.637Z,19.13
2019-04-20T23:37:08.798Z,27.37
2019-04-20T23:39:36.436Z,25.20
2019-04-20T23:42:08.914Z,27.57
2019-04-20T23:44:40.019Z,26.97
2019-04-20T23:47:19.822Z,32.83
2019-04-20T23:50:03.359Z,23.57
2019-04-20T23:52:45.502Z,27.40
2019-04-20T23:54:58.150Z,24.97
2019-04-20T23:57:21.795Z,30.07
2019-04-20T23:59:51.990Z,30.77
